sensor_id;sensor_type;location;lat;lon;timestamp;temperature;humidity
10873;DHT22;34586;53.616;10.032;2022-09-17T00:00:38;12.00;99.90
10873;DHT22;34586;53.616;10.032;2022-09-17T00:03:04;12.00;99.90
10873;DHT22;34586;53.616;10.032;2022-09-17T00:05:30;12.00;99.90
10873;DHT22;34586;53.616;10.032;2022-09-17T00:07:56;12.00;99.90
10873;DHT22;34586;53.616;10.032;2022-09-17T00:10:22;11.90;99.90
10873;DHT22;34586;53.616;10.032;2022-09-17T00:12:49;11.90;99.90
10873;DHT22;34586;53.616;10.032;2022-09-17T00:15:15;11.90;99.90
10873;DHT22;34586;53.616;10.032;2022-09-17T00:17:41;11.80;99.90
10873;DHT22;34586;53.616;10.032;2022-09-17T00:20:08;11.80;99.90
10873;DHT22;34586;53.616;10.032;2022-09-17T00:22:35;11.80;99.90
10873;DHT22;34586;53.616;10.032;2022-09-17T00:25:02;11.80;99.90
10873;DHT22;34586;53.616;10.032;2022-09-17T00:27:27;11.90;99.90
10873;DHT22;34586;53.616;10.032;2022-09-17T00:29:53;11.90;99.90
10873;DHT22;34586;53.616;10.032;2022-09-17T00:32:18;11.90;99.90
10873;DHT22;34586;53.616;10.032;2022-09-17T00:34:44;11.90;99.90
10873;DHT22;34586;53.616;10.032;2022-09-17T00:37:10;11.90;99.90
10873;DHT22;34586;53.616;10.032;2022-09-17T00:39:36;11.90;99.90
10873;DHT22;34586;53.616;10.032;2022-09-17T00:42:02;11.90;99.90
10873;DHT22;34586;53.616;10.032;2022-09-17T00:44:49;11.90;99.90
10873;DHT22;34586;53.616;10.032;2022-09-17T00:49:44;11.80;99.90
10873;DHT22;34586;53.616;10.032;2022-09-17T00:52:14;11.70;99.90
10873;DHT22;34586;53.616;10.032;2022-09-17T00:54:45;11.70;99.90
10873;DHT22;34586;53.616;10.032;2022-09-17T00:57:13;11.60;99.90
10873;DHT22;34586;53.616;10.032;2022-09-17T00:59:40;11.60;99.90
10873;DHT22;34586;53.616;10.032;2022-09-17T01:02:06;11.60;99.90
10873;DHT22;34586;53.616;10.032;2022-09-17T01:04:32;11.60;99.90
10873;DHT22;34586;53.616;10.032;2022-09-17T01:10:02;11.60;99.90
10873;DHT22;34586;53.616;10.032;2022-09-17T01:12:45;11.50;99.90
10873;DHT22;34586;53.616;10.032;2022-09-17T01:15:23;11.50;99.90
10873;DHT22;34586;53.616;10.032;2022-09-17T01:20:26;11.50;99.90
10873;DHT22;34586;53.616;10.032;2022-09-17T01:25:57;11.50;99.90
10873;DHT22;34586;53.616;10.032;2022-09-17T01:31:19;11.40;99.90
10873;DHT22;34586;53.616;10.032;2022-09-17T01:34:12;11.40;99.90
10873;DHT22;34586;53.616;10.032;2022-09-17T01:45:11;11.50;99.90
10873;DHT22;34586;53.616;10.032;2022-09-17T01:47:52;11.50;99.90
10873;DHT22;34586;53.616;10.032;2022-09-17T01:50:24;11.50;99.90
10873;DHT22;34586;53.616;10.032;2022-09-17T01:52:54;11.60;99.90
10873;DHT22;34586;53.616;10.032;2022-09-17T01:55:23;11.60;99.90
10873;DHT22;34586;53.616;10.032;2022-09-17T01:57:57;11.60;99.90
10873;DHT22;34586;53.616;10.032;2022-09-17T02:00:25;11.70;99.90
10873;DHT22;34586;53.616;10.032;2022-09-17T02:03:01;11.70;99.90
10873;DHT22;34586;53.616;10.032;2022-09-17T02:05:36;11.70;99.90
10873;DHT22;34586;53.616;10.032;2022-09-17T02:08:07;11.70;99.90
10873;DHT22;34586;53.616;10.032;2022-09-17T02:10:43;11.70;99.90
10873;DHT22;34586;53.616;10.032;2022-09-17T02:13:14;11.70;99.90
10873;DHT22;34586;53.616;10.032;2022-09-17T02:15:46;11.60;99.90
10873;DHT22;34586;53.616;10.032;2022-09-17T02:18:24;11.60;99.90
10873;DHT22;34586;53.616;10.032;2022-09-17T02:20:57;11.60;99.90
10873;DHT22;34586;53.616;10.032;2022-09-17T02:23:32;11.70;99.90
10873;DHT22;34586;53.616;10.032;2022-09-17T02:26:08;11.70;99.90
10873;DHT22;34586;53.616;10.032;2022-09-17T02:28:48;11.70;99.90
10873;DHT22;34586;53.616;10.032;2022-09-17T02:31:16;11.70;99.90
10873;DHT22;34586;53.616;10.032;2022-09-17T02:33:45;11.80;99.90
10873;DHT22;34586;53.616;10.032;2022-09-17T02:36:12;11.80;99.90
10873;DHT22;34586;53.616;10.032;2022-09-17T02:38:40;11.80;99.90
10873;DHT22;34586;53.616;10.032;2022-09-17T02:41:17;11.80;99.90
10873;DHT22;34586;53.616;10.032;2022-09-17T02:54:50;11.80;99.90
10873;DHT22;34586;53.616;10.032;2022-09-17T02:57:32;11.80;99.90
10873;DHT22;34586;53.616;10.032;2022-09-17T03:00:21;11.70;99.90
10873;DHT22;34586;53.616;10.032;2022-09-17T03:02:53;11.70;99.90
10873;DHT22;34586;53.616;10.032;2022-09-17T03:05:22;11.70;99.90
10873;DHT22;34586;53.616;10.032;2022-09-17T03:07:49;11.70;99.90
10873;DHT22;34586;53.616;10.032;2022-09-17T03:10:15;11.70;99.90
10873;DHT22;34586;53.616;10.032;2022-09-17T03:12:41;11.70;99.90
10873;DHT22;34586;53.616;10.032;2022-09-17T03:15:07;11.80;99.90
10873;DHT22;34586;53.616;10.032;2022-09-17T03:17:32;11.70;99.90
10873;DHT22;34586;53.616;10.032;2022-09-17T03:19:58;11.70;99.90
10873;DHT22;34586;53.616;10.032;2022-09-17T03:22:24;11.70;99.90
10873;DHT22;34586;53.616;10.032;2022-09-17T03:24:49;11.70;99.90
10873;DHT22;34586;53.616;10.032;2022-09-17T03:27:15;11.60;99.90
10873;DHT22;34586;53.616;10.032;2022-09-17T03:29:40;11.60;99.90
10873;DHT22;34586;53.616;10.032;2022-09-17T03:32:06;11.70;99.90
10873;DHT22;34586;53.616;10.032;2022-09-17T03:34:32;11.70;99.90
10873;DHT22;34586;53.616;10.032;2022-09-17T03:36:58;11.80;99.90
10873;DHT22;34586;53.616;10.032;2022-09-17T03:39:23;11.80;99.90
10873;DHT22;34586;53.616;10.032;2022-09-17T03:41:49;11.80;99.90
10873;DHT22;34586;53.616;10.032;2022-09-17T03:44:14;11.80;99.90
10873;DHT22;34586;53.616;10.032;2022-09-17T03:46:40;11.80;99.90
10873;DHT22;34586;53.616;10.032;2022-09-17T03:49:06;11.80;99.90
10873;DHT22;34586;53.616;10.032;2022-09-17T03:51:31;11.80;99.90
10873;DHT22;34586;53.616;10.032;2022-09-17T03:53:57;11.80;99.90
10873;DHT22;34586;53.616;10.032;2022-09-17T03:56:22;11.80;99.90
10873;DHT22;34586;53.616;10.032;2022-09-17T03:58:48;11.80;99.90
10873;DHT22;34586;53.616;10.032;2022-09-17T04:01:13;11.80;99.90
10873;DHT22;34586;53.616;10.032;2022-09-17T04:03:39;11.70;99.90
10873;DHT22;34586;53.616;10.032;2022-09-17T04:06:05;11.70;99.90
10873;DHT22;34586;53.616;10.032;2022-09-17T04:08:30;11.70;99.90
10873;DHT22;34586;53.616;10.032;2022-09-17T04:10:57;11.70;99.90
10873;DHT22;34586;53.616;10.032;2022-09-17T04:13:22;11.70;99.90
10873;DHT22;34586;53.616;10.032;2022-09-17T04:15:48;11.70;99.90
10873;DHT22;34586;53.616;10.032;2022-09-17T04:18:13;11.70;99.90
10873;DHT22;34586;53.616;10.032;2022-09-17T04:20:39;11.70;99.90
10873;DHT22;34586;53.616;10.032;2022-09-17T04:23:05;11.70;99.90
10873;DHT22;34586;53.616;10.032;2022-09-17T04:25:32;11.70;99.90
10873;DHT22;34586;53.616;10.032;2022-09-17T04:27:58;11.60;99.90
10873;DHT22;34586;53.616;10.032;2022-09-17T04:30:23;11.60;99.90
10873;DHT22;34586;53.616;10.032;2022-09-17T04:32:49;11.60;99.90
10873;DHT22;34586;53.616;10.032;2022-09-17T04:35:15;11.60;99.90
10873;DHT22;34586;53.616;10.032;2022-09-17T04:37:40;11.60;99.90
10873;DHT22;34586;53.616;10.032;2022-09-17T04:40:06;11.60;99.90
10873;DHT22;34586;53.616;10.032;2022-09-17T04:42:32;11.60;99.90
10873;DHT22;34586;53.616;10.032;2022-09-17T04:44:58;11.60;99.90
10873;DHT22;34586;53.616;10.032;2022-09-17T04:47:24;11.70;99.90
10873;DHT22;34586;53.616;10.032;2022-09-17T04:49:50;11.60;99.90
10873;DHT22;34586;53.616;10.032;2022-09-17T04:52:15;11.60;99.90
10873;DHT22;34586;53.616;10.032;2022-09-17T04:54:41;11.60;99.90
10873;DHT22;34586;53.616;10.032;2022-09-17T04:57:06;11.60;99.90
10873;DHT22;34586;53.616;10.032;2022-09-17T04:59:32;11.60;99.90
10873;DHT22;34586;53.616;10.032;2022-09-17T05:01:57;11.60;99.90
10873;DHT22;34586;53.616;10.032;2022-09-17T05:04:23;11.50;99.90
10873;DHT22;34586;53.616;10.032;2022-09-17T05:06:49;11.50;99.90
10873;DHT22;34586;53.616;10.032;2022-09-17T05:09:14;11.50;99.90
10873;DHT22;34586;53.616;10.032;2022-09-17T05:11:40;11.40;99.90
10873;DHT22;34586;53.616;10.032;2022-09-17T05:14:06;11.40;99.90
10873;DHT22;34586;53.616;10.032;2022-09-17T05:16:31;11.40;99.90
10873;DHT22;34586;53.616;10.032;2022-09-17T05:18:57;11.50;99.90
10873;DHT22;34586;53.616;10.032;2022-09-17T05:21:23;11.40;99.90
10873;DHT22;34586;53.616;10.032;2022-09-17T05:23:49;11.40;99.90
10873;DHT22;34586;53.616;10.032;2022-09-17T05:26:14;11.40;99.90
10873;DHT22;34586;53.616;10.032;2022-09-17T05:28:40;11.40;99.90
10873;DHT22;34586;53.616;10.032;2022-09-17T05:31:06;11.40;99.90
10873;DHT22;34586;53.616;10.032;2022-09-17T05:33:32;11.40;99.90
10873;DHT22;34586;53.616;10.032;2022-09-17T05:35:58;11.40;99.90
10873;DHT22;34586;53.616;10.032;2022-09-17T05:38:24;11.50;99.90
10873;DHT22;34586;53.616;10.032;2022-09-17T05:40:50;11.50;99.90
10873;DHT22;34586;53.616;10.032;2022-09-17T05:43:16;11.50;99.90
10873;DHT22;34586;53.616;10.032;2022-09-17T05:45:41;11.50;99.90
10873;DHT22;34586;53.616;10.032;2022-09-17T05:48:11;11.50;99.90
10873;DHT22;34586;53.616;10.032;2022-09-17T05:50:37;11.50;99.90
10873;DHT22;34586;53.616;10.032;2022-09-17T05:53:05;11.60;99.90
10873;DHT22;34586;53.616;10.032;2022-09-17T05:55:32;11.60;99.90
10873;DHT22;34586;53.616;10.032;2022-09-17T05:57:57;11.60;99.90
10873;DHT22;34586;53.616;10.032;2022-09-17T06:00:23;11.60;99.90
10873;DHT22;34586;53.616;10.032;2022-09-17T06:02:55;11.60;99.90
10873;DHT22;34586;53.616;10.032;2022-09-17T06:05:22;11.60;99.90
10873;DHT22;34586;53.616;10.032;2022-09-17T06:07:49;11.60;99.90
10873;DHT22;34586;53.616;10.032;2022-09-17T06:10:14;11.60;99.90
10873;DHT22;34586;53.616;10.032;2022-09-17T06:12:40;11.60;99.90
10873;DHT22;34586;53.616;10.032;2022-09-17T06:15:06;11.60;99.90
10873;DHT22;34586;53.616;10.032;2022-09-17T06:17:33;11.60;99.90
10873;DHT22;34586;53.616;10.032;2022-09-17T06:19:59;11.70;99.90
10873;DHT22;34586;53.616;10.032;2022-09-17T06:22:25;11.70;99.90
10873;DHT22;34586;53.616;10.032;2022-09-17T06:24:50;11.70;99.90
10873;DHT22;34586;53.616;10.032;2022-09-17T06:27:16;11.60;99.90
10873;DHT22;34586;53.616;10.032;2022-09-17T06:29:41;11.60;99.90
10873;DHT22;34586;53.616;10.032;2022-09-17T06:32:07;11.50;99.90
10873;DHT22;34586;53.616;10.032;2022-09-17T06:34:37;11.50;99.90
10873;DHT22;34586;53.616;10.032;2022-09-17T06:37:03;11.40;99.90
10873;DHT22;34586;53.616;10.032;2022-09-17T06:39:29;11.50;99.90
10873;DHT22;34586;53.616;10.032;2022-09-17T06:41:54;11.40;99.90
10873;DHT22;34586;53.616;10.032;2022-09-17T06:44:20;11.30;99.90
10873;DHT22;34586;53.616;10.032;2022-09-17T06:46:48;11.30;99.90
10873;DHT22;34586;53.616;10.032;2022-09-17T06:49:14;11.30;99.90
10873;DHT22;34586;53.616;10.032;2022-09-17T06:51:42;11.20;99.90
10873;DHT22;34586;53.616;10.032;2022-09-17T06:54:07;11.30;99.90
10873;DHT22;34586;53.616;10.032;2022-09-17T06:56:33;11.30;99.90
10873;DHT22;34586;53.616;10.032;2022-09-17T06:58:59;11.30;99.90
10873;DHT22;34586;53.616;10.032;2022-09-17T07:01:25;11.30;99.90
10873;DHT22;34586;53.616;10.032;2022-09-17T07:03:50;11.40;99.90
10873;DHT22;34586;53.616;10.032;2022-09-17T07:06:16;11.50;99.90
10873;DHT22;34586;53.616;10.032;2022-09-17T07:08:41;11.70;99.90
10873;DHT22;34586;53.616;10.032;2022-09-17T07:11:08;11.80;99.90
10873;DHT22;34586;53.616;10.032;2022-09-17T07:13:34;12.20;99.90
10873;DHT22;34586;53.616;10.032;2022-09-17T07:16:01;11.80;99.90
10873;DHT22;34586;53.616;10.032;2022-09-17T07:18:27;11.80;99.90
10873;DHT22;34586;53.616;10.032;2022-09-17T07:21:01;11.80;99.90
10873;DHT22;34586;53.616;10.032;2022-09-17T07:23:32;11.90;99.90
10873;DHT22;34586;53.616;10.032;2022-09-17T07:26:00;12.10;99.90
10873;DHT22;34586;53.616;10.032;2022-09-17T07:28:26;12.30;99.90
10873;DHT22;34586;53.616;10.032;2022-09-17T07:30:53;12.50;99.90
10873;DHT22;34586;53.616;10.032;2022-09-17T07:33:23;12.70;87.10
10873;DHT22;34586;53.616;10.032;2022-09-17T07:35:53;13.00;95.00
10873;DHT22;34586;53.616;10.032;2022-09-17T07:38:19;13.10;27.20
10873;DHT22;34586;53.616;10.032;2022-09-17T07:41:05;13.20;1.00
10873;DHT22;34586;53.616;10.032;2022-09-17T07:43:32;13.30;1.00
10873;DHT22;34586;53.616;10.032;2022-09-17T07:46:00;13.30;1.00
10873;DHT22;34586;53.616;10.032;2022-09-17T07:48:26;13.10;1.00
10873;DHT22;34586;53.616;10.032;2022-09-17T07:50:53;13.10;1.00
10873;DHT22;34586;53.616;10.032;2022-09-17T07:53:18;13.00;1.00
10873;DHT22;34586;53.616;10.032;2022-09-17T07:55:51;12.90;1.00
10873;DHT22;34586;53.616;10.032;2022-09-17T07:58:17;12.80;1.00
10873;DHT22;34586;53.616;10.032;2022-09-17T08:00:43;12.80;1.00
10873;DHT22;34586;53.616;10.032;2022-09-17T08:03:08;12.80;1.00
10873;DHT22;34586;53.616;10.032;2022-09-17T08:05:34;12.80;1.00
10873;DHT22;34586;53.616;10.032;2022-09-17T08:07:59;12.80;1.00
10873;DHT22;34586;53.616;10.032;2022-09-17T08:10:25;12.90;1.00
10873;DHT22;34586;53.616;10.032;2022-09-17T08:12:55;12.90;1.00
10873;DHT22;34586;53.616;10.032;2022-09-17T08:15:21;12.90;1.00
10873;DHT22;34586;53.616;10.032;2022-09-17T08:17:47;13.00;1.00
10873;DHT22;34586;53.616;10.032;2022-09-17T08:20:14;13.00;1.00
10873;DHT22;34586;53.616;10.032;2022-09-17T08:22:40;13.10;1.00
10873;DHT22;34586;53.616;10.032;2022-09-17T08:25:06;13.10;1.00
10873;DHT22;34586;53.616;10.032;2022-09-17T08:27:32;13.20;1.00
10873;DHT22;34586;53.616;10.032;2022-09-17T08:29:58;13.20;1.00
10873;DHT22;34586;53.616;10.032;2022-09-17T08:32:24;13.30;1.00
10873;DHT22;34586;53.616;10.032;2022-09-17T08:34:50;13.40;1.00
10873;DHT22;34586;53.616;10.032;2022-09-17T08:37:18;13.40;1.00
10873;DHT22;34586;53.616;10.032;2022-09-17T08:39:44;13.40;99.90
10873;DHT22;34586;53.616;10.032;2022-09-17T08:42:22;13.40;1.00
10873;DHT22;34586;53.616;10.032;2022-09-17T08:44:51;13.50;99.90
10873;DHT22;34586;53.616;10.032;2022-09-17T08:47:27;13.50;99.90
10873;DHT22;34586;53.616;10.032;2022-09-17T08:49:57;13.60;99.90
10873;DHT22;34586;53.616;10.032;2022-09-17T09:04:21;13.60;1.00
10873;DHT22;34586;53.616;10.032;2022-09-17T09:06:54;13.40;99.90
10873;DHT22;34586;53.616;10.032;2022-09-17T09:09:26;13.40;1.00
10873;DHT22;34586;53.616;10.032;2022-09-17T09:12:02;13.50;1.00
10873;DHT22;34586;53.616;10.032;2022-09-17T09:14:39;13.80;1.00
10873;DHT22;34586;53.616;10.032;2022-09-17T09:17:08;14.10;99.90
10873;DHT22;34586;53.616;10.032;2022-09-17T09:19:42;14.30;1.00
10873;DHT22;34586;53.616;10.032;2022-09-17T09:22:34;14.30;1.00
10873;DHT22;34586;53.616;10.032;2022-09-17T09:33:53;14.00;1.00
10873;DHT22;34586;53.616;10.032;2022-09-17T09:36:19;14.00;99.90
10873;DHT22;34586;53.616;10.032;2022-09-17T09:41:31;14.20;1.00
10873;DHT22;34586;53.616;10.032;2022-09-17T09:44:04;14.30;99.90
10873;DHT22;34586;53.616;10.032;2022-09-17T09:46:48;14.40;66.30
10873;DHT22;34586;53.616;10.032;2022-09-17T09:52:17;14.20;1.00
10873;DHT22;34586;53.616;10.032;2022-09-17T09:55:26;14.30;99.90
10873;DHT22;34586;53.616;10.032;2022-09-17T09:58:01;14.40;1.00
10873;DHT22;34586;53.616;10.032;2022-09-17T10:00:39;14.40;16.60
10873;DHT22;34586;53.616;10.032;2022-09-17T10:03:20;14.40;99.90
10873;DHT22;34586;53.616;10.032;2022-09-17T10:06:06;14.30;1.00
10873;DHT22;34586;53.616;10.032;2022-09-17T10:08:38;14.10;1.00
10873;DHT22;34586;53.616;10.032;2022-09-17T10:13:36;14.20;99.90
10873;DHT22;34586;53.616;10.032;2022-09-17T10:16:23;14.20;1.00
10873;DHT22;34586;53.616;10.032;2022-09-17T10:19:17;14.50;1.00
10873;DHT22;34586;53.616;10.032;2022-09-17T10:21:43;14.00;99.90
10873;DHT22;34586;53.616;10.032;2022-09-17T10:24:26;13.90;99.90
10873;DHT22;34586;53.616;10.032;2022-09-17T10:26:59;14.20;1.00
10873;DHT22;34586;53.616;10.032;2022-09-17T10:29:25;14.80;99.90
10873;DHT22;34586;53.616;10.032;2022-09-17T10:31:53;14.30;1.00
10873;DHT22;34586;53.616;10.032;2022-09-17T10:34:27;14.30;1.00
10873;DHT22;34586;53.616;10.032;2022-09-17T10:36:54;14.20;1.00
10873;DHT22;34586;53.616;10.032;2022-09-17T10:39:31;14.10;99.90
10873;DHT22;34586;53.616;10.032;2022-09-17T10:42:11;14.10;99.90
10873;DHT22;34586;53.616;10.032;2022-09-17T10:44:38;14.30;1.00
10873;DHT22;34586;53.616;10.032;2022-09-17T10:47:30;14.40;99.90
10873;DHT22;34586;53.616;10.032;2022-09-17T10:50:18;14.50;99.90
10873;DHT22;34586;53.616;10.032;2022-09-17T10:52:52;14.50;99.90
10873;DHT22;34586;53.616;10.032;2022-09-17T10:57:52;14.50;99.90
10873;DHT22;34586;53.616;10.032;2022-09-17T11:00:22;14.30;99.90
10873;DHT22;34586;53.616;10.032;2022-09-17T11:08:40;14.50;99.90
10873;DHT22;34586;53.616;10.032;2022-09-17T11:11:43;14.50;36.50
10873;DHT22;34586;53.616;10.032;2022-09-17T11:20:00;14.90;1.00
10873;DHT22;34586;53.616;10.032;2022-09-17T11:25:38;15.10;1.00
10873;DHT22;34586;53.616;10.032;2022-09-17T11:30:55;15.30;1.00
10873;DHT22;34586;53.616;10.032;2022-09-17T11:33:41;15.40;99.90
10873;DHT22;34586;53.616;10.032;2022-09-17T11:36:17;15.40;8.90
10873;DHT22;34586;53.616;10.032;2022-09-17T11:38:50;15.30;1.00
10873;DHT22;34586;53.616;10.032;2022-09-17T11:41:21;15.10;92.90
10873;DHT22;34586;53.616;10.032;2022-09-17T11:44:37;15.00;99.90
10873;DHT22;34586;53.616;10.032;2022-09-17T11:46:41;15.30;1.00
10873;DHT22;34586;53.616;10.032;2022-09-17T11:51:46;16.10;1.00
10873;DHT22;34586;53.616;10.032;2022-09-17T11:54:39;16.00;1.00
10873;DHT22;34586;53.616;10.032;2022-09-17T11:57:16;16.00;80.80
10873;DHT22;34586;53.616;10.032;2022-09-17T12:07:34;15.90;1.00
10873;DHT22;34586;53.616;10.032;2022-09-17T12:10:27;15.50;99.90
10873;DHT22;34586;53.616;10.032;2022-09-17T12:13:27;15.40;99.90
10873;DHT22;34586;53.616;10.032;2022-09-17T12:18:50;15.60;1.00
10873;DHT22;34586;53.616;10.032;2022-09-17T12:21:22;15.60;1.00
10873;DHT22;34586;53.616;10.032;2022-09-17T12:23:56;15.70;98.30
10873;DHT22;34586;53.616;10.032;2022-09-17T12:26:37;16.40;1.00
10873;DHT22;34586;53.616;10.032;2022-09-17T12:31:49;17.60;99.90
10873;DHT22;34586;53.616;10.032;2022-09-17T12:34:35;17.60;1.00
10873;DHT22;34586;53.616;10.032;2022-09-17T12:37:13;18.20;99.90
10873;DHT22;34586;53.616;10.032;2022-09-17T12:40:25;18.50;1.00
10873;DHT22;34586;53.616;10.032;2022-09-17T12:43:00;18.80;1.00
10873;DHT22;34586;53.616;10.032;2022-09-17T12:45:45;18.70;1.00
10873;DHT22;34586;53.616;10.032;2022-09-17T12:48:26;18.00;1.00
10873;DHT22;34586;53.616;10.032;2022-09-17T12:59:18;17.70;1.00
10873;DHT22;34586;53.616;10.032;2022-09-17T13:02:07;18.10;1.00
10873;DHT22;34586;53.616;10.032;2022-09-17T13:13:41;17.50;99.90
10873;DHT22;34586;53.616;10.032;2022-09-17T13:16:44;17.30;99.90
10873;DHT22;34586;53.616;10.032;2022-09-17T13:21:52;16.80;1.00
10873;DHT22;34586;53.616;10.032;2022-09-17T13:24:22;16.50;1.00
10873;DHT22;34586;53.616;10.032;2022-09-17T13:26:54;16.20;1.00
10873;DHT22;34586;53.616;10.032;2022-09-17T13:34:53;15.80;1.00
10873;DHT22;34586;53.616;10.032;2022-09-17T13:37:19;16.10;99.90
10873;DHT22;34586;53.616;10.032;2022-09-17T13:39:49;16.60;1.00
10873;DHT22;34586;53.616;10.032;2022-09-17T13:42:20;17.10;99.90
10873;DHT22;34586;53.616;10.032;2022-09-17T13:45:00;17.40;99.90
10873;DHT22;34586;53.616;10.032;2022-09-17T13:47:30;17.50;99.90
10873;DHT22;34586;53.616;10.032;2022-09-17T13:50:06;17.70;1.00
10873;DHT22;34586;53.616;10.032;2022-09-17T13:52:54;17.80;25.20
10873;DHT22;34586;53.616;10.032;2022-09-17T14:08:28;15.80;99.90
10873;DHT22;34586;53.616;10.032;2022-09-17T14:10:57;15.20;1.00
10873;DHT22;34586;53.616;10.032;2022-09-17T14:13:43;14.80;99.90
10873;DHT22;34586;53.616;10.032;2022-09-17T14:19:26;14.20;1.00
10873;DHT22;34586;53.616;10.032;2022-09-17T14:27:17;14.50;80.80
10873;DHT22;34586;53.616;10.032;2022-09-17T14:38:10;15.10;1.00
10873;DHT22;34586;53.616;10.032;2022-09-17T14:40:45;15.00;1.00
10873;DHT22;34586;53.616;10.032;2022-09-17T14:43:42;14.70;1.00
10873;DHT22;34586;53.616;10.032;2022-09-17T14:46:26;14.30;40.70
10873;DHT22;34586;53.616;10.032;2022-09-17T14:48:53;13.80;99.90
10873;DHT22;34586;53.616;10.032;2022-09-17T14:53:49;13.20;99.90
10873;DHT22;34586;53.616;10.032;2022-09-17T14:56:32;13.10;99.90
10873;DHT22;34586;53.616;10.032;2022-09-17T14:58:59;13.00;99.90
10873;DHT22;34586;53.616;10.032;2022-09-17T15:01:27;12.90;99.90
10873;DHT22;34586;53.616;10.032;2022-09-17T15:06:38;13.00;99.90
10873;DHT22;34586;53.616;10.032;2022-09-17T15:09:04;13.00;99.90
10873;DHT22;34586;53.616;10.032;2022-09-17T15:11:34;13.00;99.90
10873;DHT22;34586;53.616;10.032;2022-09-17T15:14:05;13.10;99.90
10873;DHT22;34586;53.616;10.032;2022-09-17T15:16:31;13.20;99.90
10873;DHT22;34586;53.616;10.032;2022-09-17T15:19:00;13.30;99.90
10873;DHT22;34586;53.616;10.032;2022-09-17T15:21:43;13.30;99.90
10873;DHT22;34586;53.616;10.032;2022-09-17T15:26:53;13.50;99.90
10873;DHT22;34586;53.616;10.032;2022-09-17T15:29:22;13.50;99.90
10873;DHT22;34586;53.616;10.032;2022-09-17T15:31:50;13.50;99.90
10873;DHT22;34586;53.616;10.032;2022-09-17T15:34:16;13.50;99.90
10873;DHT22;34586;53.616;10.032;2022-09-17T15:37:02;13.60;99.90
10873;DHT22;34586;53.616;10.032;2022-09-17T15:39:45;13.70;99.90
10873;DHT22;34586;53.616;10.032;2022-09-17T15:42:23;13.60;99.90
10873;DHT22;34586;53.616;10.032;2022-09-17T15:44:50;13.60;99.90
10873;DHT22;34586;53.616;10.032;2022-09-17T15:47:33;13.60;99.90
10873;DHT22;34586;53.616;10.032;2022-09-17T15:52:38;13.80;99.90
10873;DHT22;34586;53.616;10.032;2022-09-17T15:55:04;13.90;99.90
10873;DHT22;34586;53.616;10.032;2022-09-17T15:57:31;13.90;99.90
10873;DHT22;34586;53.616;10.032;2022-09-17T16:00:13;13.90;99.90
10873;DHT22;34586;53.616;10.032;2022-09-17T16:02:39;13.90;99.90
10873;DHT22;34586;53.616;10.032;2022-09-17T16:07:44;13.90;99.60
10873;DHT22;34586;53.616;10.032;2022-09-17T16:10:11;13.80;99.60
10873;DHT22;34586;53.616;10.032;2022-09-17T16:12:36;13.70;99.90
10873;DHT22;34586;53.616;10.032;2022-09-17T16:15:02;13.60;99.90
10873;DHT22;34586;53.616;10.032;2022-09-17T16:17:46;13.60;99.90
10873;DHT22;34586;53.616;10.032;2022-09-17T16:20:15;13.60;99.90
10873;DHT22;34586;53.616;10.032;2022-09-17T16:22:42;13.50;99.90
10873;DHT22;34586;53.616;10.032;2022-09-17T16:25:09;13.50;99.90
10873;DHT22;34586;53.616;10.032;2022-09-17T16:27:52;13.40;99.90
10873;DHT22;34586;53.616;10.032;2022-09-17T16:30:21;13.40;99.90
10873;DHT22;34586;53.616;10.032;2022-09-17T16:32:46;13.40;99.90
10873;DHT22;34586;53.616;10.032;2022-09-17T16:35:17;13.30;99.90
10873;DHT22;34586;53.616;10.032;2022-09-17T16:37:50;13.30;99.90
10873;DHT22;34586;53.616;10.032;2022-09-17T16:40:16;13.20;99.90
10873;DHT22;34586;53.616;10.032;2022-09-17T16:42:42;13.20;99.90
10873;DHT22;34586;53.616;10.032;2022-09-17T16:45:08;13.20;99.90
10873;DHT22;34586;53.616;10.032;2022-09-17T16:47:38;13.10;99.90
10873;DHT22;34586;53.616;10.032;2022-09-17T16:50:06;13.10;99.90
10873;DHT22;34586;53.616;10.032;2022-09-17T16:52:33;13.10;99.90
10873;DHT22;34586;53.616;10.032;2022-09-17T16:54:59;13.00;99.90
10873;DHT22;34586;53.616;10.032;2022-09-17T16:57:25;13.00;99.90
10873;DHT22;34586;53.616;10.032;2022-09-17T16:59:50;13.00;99.90
10873;DHT22;34586;53.616;10.032;2022-09-17T17:02:16;13.10;99.90
10873;DHT22;34586;53.616;10.032;2022-09-17T17:04:41;13.10;99.90
10873;DHT22;34586;53.616;10.032;2022-09-17T17:07:07;13.00;99.90
10873;DHT22;34586;53.616;10.032;2022-09-17T17:09:33;13.10;99.90
10873;DHT22;34586;53.616;10.032;2022-09-17T17:11:58;13.00;99.90
10873;DHT22;34586;53.616;10.032;2022-09-17T17:14:24;13.10;99.90
10873;DHT22;34586;53.616;10.032;2022-09-17T17:16:49;13.10;99.90
10873;DHT22;34586;53.616;10.032;2022-09-17T17:19:15;13.00;99.90
10873;DHT22;34586;53.616;10.032;2022-09-17T17:21:42;13.00;99.90
10873;DHT22;34586;53.616;10.032;2022-09-17T17:24:07;13.00;99.90
10873;DHT22;34586;53.616;10.032;2022-09-17T17:26:33;13.00;99.90
10873;DHT22;34586;53.616;10.032;2022-09-17T17:28:58;13.00;99.90
10873;DHT22;34586;53.616;10.032;2022-09-17T17:31:24;13.00;99.90
10873;DHT22;34586;53.616;10.032;2022-09-17T17:33:50;13.00;99.90
10873;DHT22;34586;53.616;10.032;2022-09-17T17:36:16;13.00;99.90
10873;DHT22;34586;53.616;10.032;2022-09-17T17:38:42;12.90;99.90
10873;DHT22;34586;53.616;10.032;2022-09-17T17:41:10;12.90;99.90
10873;DHT22;34586;53.616;10.032;2022-09-17T17:43:36;12.80;99.90
10873;DHT22;34586;53.616;10.032;2022-09-17T17:46:05;12.80;99.90
10873;DHT22;34586;53.616;10.032;2022-09-17T17:48:31;12.70;99.90
10873;DHT22;34586;53.616;10.032;2022-09-17T17:51:09;12.70;99.90
10873;DHT22;34586;53.616;10.032;2022-09-17T17:53:35;12.60;99.90
10873;DHT22;34586;53.616;10.032;2022-09-17T17:56:04;12.60;99.90
10873;DHT22;34586;53.616;10.032;2022-09-17T17:58:30;12.60;99.90
10873;DHT22;34586;53.616;10.032;2022-09-17T18:00:56;12.60;99.90
10873;DHT22;34586;53.616;10.032;2022-09-17T18:03:22;12.60;99.90
10873;DHT22;34586;53.616;10.032;2022-09-17T18:05:55;12.60;99.90
10873;DHT22;34586;53.616;10.032;2022-09-17T18:08:24;12.60;99.90
10873;DHT22;34586;53.616;10.032;2022-09-17T18:10:54;12.50;99.90
10873;DHT22;34586;53.616;10.032;2022-09-17T18:13:23;12.60;99.90
10873;DHT22;34586;53.616;10.032;2022-09-17T18:15:53;12.40;99.90
10873;DHT22;34586;53.616;10.032;2022-09-17T18:18:20;12.50;99.90
10873;DHT22;34586;53.616;10.032;2022-09-17T18:20:46;12.50;99.90
10873;DHT22;34586;53.616;10.032;2022-09-17T18:23:12;12.50;99.90
10873;DHT22;34586;53.616;10.032;2022-09-17T18:25:37;12.60;99.90